Live aus Altenrhein
LIVE
LSZR 011950Z AUTO 05004KT 350V100 9999 -RA BKN042 SCT050 06/04 Q1010

People´s Info Center:

Öffnungszeiten Mo-Fr, 8-18 Uhr

 

info@peoples.ch

 
Aus Österreich:

T: +43 (0)5572 203 610

 

Aus CH / LI / DE:

T: +41 (0)71 858 51 60

 

Bahn oder Bus

Mit öffentlichen Verkehrsmittel zum/ab Flughafen Köln.

 

Mit Bussen und Bahnen ist der Flughafen sehr gut zu erreichen. Reisende, die im ICE-Bahnhof aussteigen, befinden sich bereits in der Mitte des Flughafens.

 

An- & Abreise mit der Bahn

Der Köln Bonn Airport ist direkt mit der Bahn erreichbar. Vom Hauptbahnhof Köln zum Flughafen oder umgekehrt benötigen Sie nur 13 Minuten.

 

Fahrplan der Deutschen Bahn

Aktueller Ankunftsfahrplan Köln Bonn Airport

 

Anreise mit dem Bus

Ab Köln mit der Stadtbahn Linie 7 bis Porz Markt, von dort aus mit der Linie 161 zum Airport und zurück. Haltestellen T1 Ankunftsebene, Verwaltung und Luftfrachtzentrum.

 

Fahrplanauskunft der Kölner Verkehrs-Betriebe

Fahrplanauskunft des VRS


Ab Bonn nutzen Sie die Linie SB 60, Köln Bonn Airport - Hbf. Bonn - Köln Bonn Airport.

 

Fahrplanauskunft der Stadtwerke Bonn